sensor_id;sensor_type;location;lat;lon;timestamp;temperature;humidity
790;DHT22;378;48.844;9.156;2023-02-15T00:01:09;0.10;99.90
790;DHT22;378;48.844;9.156;2023-02-15T00:03:36;0.00;99.90
790;DHT22;378;48.844;9.156;2023-02-15T00:06:04;0.10;99.90
790;DHT22;378;48.844;9.156;2023-02-15T00:08:31;0.00;99.90
790;DHT22;378;48.844;9.156;2023-02-15T00:11:05;0.10;99.90
790;DHT22;378;48.844;9.156;2023-02-15T00:13:32;0.10;99.90
790;DHT22;378;48.844;9.156;2023-02-15T00:16:02;0.10;99.90
790;DHT22;378;48.844;9.156;2023-02-15T00:18:30;0.10;99.90
790;DHT22;378;48.844;9.156;2023-02-15T00:20:57;0.00;99.90
790;DHT22;378;48.844;9.156;2023-02-15T00:23:25;-0.10;99.90
790;DHT22;378;48.844;9.156;2023-02-15T00:25:52;-0.10;99.90
790;DHT22;378;48.844;9.156;2023-02-15T00:28:29;-0.10;99.90
790;DHT22;378;48.844;9.156;2023-02-15T00:31:02;-0.20;99.90
790;DHT22;378;48.844;9.156;2023-02-15T00:33:31;-0.20;99.90
790;DHT22;378;48.844;9.156;2023-02-15T00:35:58;-0.30;99.90
790;DHT22;378;48.844;9.156;2023-02-15T00:38:26;-0.30;99.90
790;DHT22;378;48.844;9.156;2023-02-15T00:40:53;-0.40;99.90
790;DHT22;378;48.844;9.156;2023-02-15T00:43:20;-0.40;99.90
790;DHT22;378;48.844;9.156;2023-02-15T00:45:47;-0.30;99.90
790;DHT22;378;48.844;9.156;2023-02-15T00:48:14;-0.40;99.90
790;DHT22;378;48.844;9.156;2023-02-15T00:50:44;-0.40;99.90
790;DHT22;378;48.844;9.156;2023-02-15T00:53:11;-0.40;99.90
790;DHT22;378;48.844;9.156;2023-02-15T00:55:38;-0.40;99.90
790;DHT22;378;48.844;9.156;2023-02-15T00:58:06;-0.40;99.90
790;DHT22;378;48.844;9.156;2023-02-15T01:00:32;-0.40;99.90
790;DHT22;378;48.844;9.156;2023-02-15T01:03:00;-0.40;99.90
790;DHT22;378;48.844;9.156;2023-02-15T01:05:27;-0.40;99.90
790;DHT22;378;48.844;9.156;2023-02-15T01:07:56;-0.40;99.90
790;DHT22;378;48.844;9.156;2023-02-15T01:10:23;-0.40;99.90
790;DHT22;378;48.844;9.156;2023-02-15T01:12:50;-0.40;99.90
790;DHT22;378;48.844;9.156;2023-02-15T01:15:17;-0.40;99.90
790;DHT22;378;48.844;9.156;2023-02-15T01:17:44;-0.40;99.90
790;DHT22;378;48.844;9.156;2023-02-15T01:20:16;-0.40;99.90
790;DHT22;378;48.844;9.156;2023-02-15T01:22:43;-0.50;99.90
790;DHT22;378;48.844;9.156;2023-02-15T01:25:12;-0.50;99.90
790;DHT22;378;48.844;9.156;2023-02-15T01:27:38;-0.50;99.90
790;DHT22;378;48.844;9.156;2023-02-15T01:30:06;-0.60;99.90
790;DHT22;378;48.844;9.156;2023-02-15T01:32:34;-0.60;99.90
790;DHT22;378;48.844;9.156;2023-02-15T01:35:01;-0.50;99.90
790;DHT22;378;48.844;9.156;2023-02-15T01:37:29;-0.50;99.90
790;DHT22;378;48.844;9.156;2023-02-15T01:39:56;-0.60;99.90
790;DHT22;378;48.844;9.156;2023-02-15T01:42:27;-0.60;99.90
790;DHT22;378;48.844;9.156;2023-02-15T01:44:56;-0.60;99.90
790;DHT22;378;48.844;9.156;2023-02-15T01:47:29;-0.60;99.90
790;DHT22;378;48.844;9.156;2023-02-15T01:50:03;-0.60;99.90
790;DHT22;378;48.844;9.156;2023-02-15T01:52:34;-0.60;99.90
790;DHT22;378;48.844;9.156;2023-02-15T01:55:04;-0.70;99.90
790;DHT22;378;48.844;9.156;2023-02-15T01:57:32;-0.70;99.90
790;DHT22;378;48.844;9.156;2023-02-15T02:00:02;-0.80;99.90
790;DHT22;378;48.844;9.156;2023-02-15T02:02:30;-0.80;99.90
790;DHT22;378;48.844;9.156;2023-02-15T02:04:59;-0.80;99.90
790;DHT22;378;48.844;9.156;2023-02-15T02:07:30;-0.90;99.90
790;DHT22;378;48.844;9.156;2023-02-15T02:09:58;-0.90;99.90
790;DHT22;378;48.844;9.156;2023-02-15T02:12:26;-1.00;99.90
790;DHT22;378;48.844;9.156;2023-02-15T02:14:55;-1.00;99.90
790;DHT22;378;48.844;9.156;2023-02-15T02:17:28;-1.00;99.90
790;DHT22;378;48.844;9.156;2023-02-15T02:20:17;-0.90;99.90
790;DHT22;378;48.844;9.156;2023-02-15T02:23:13;-0.90;99.90
790;DHT22;378;48.844;9.156;2023-02-15T02:26:08;-0.80;99.90
790;DHT22;378;48.844;9.156;2023-02-15T02:29:03;-0.90;99.90
790;DHT22;378;48.844;9.156;2023-02-15T02:31:59;-1.00;99.90
790;DHT22;378;48.844;9.156;2023-02-15T02:34:35;-1.00;99.90
790;DHT22;378;48.844;9.156;2023-02-15T02:37:08;-1.10;99.90
790;DHT22;378;48.844;9.156;2023-02-15T02:39:47;-1.10;99.90
790;DHT22;378;48.844;9.156;2023-02-15T02:42:21;-1.20;99.90
790;DHT22;378;48.844;9.156;2023-02-15T02:44:54;-1.20;99.90
790;DHT22;378;48.844;9.156;2023-02-15T02:47:30;-1.20;99.90
790;DHT22;378;48.844;9.156;2023-02-15T02:50:02;-1.20;99.90
790;DHT22;378;48.844;9.156;2023-02-15T02:52:38;-1.30;99.90
790;DHT22;378;48.844;9.156;2023-02-15T02:55:08;-1.50;99.90
790;DHT22;378;48.844;9.156;2023-02-15T02:57:38;-1.50;99.90
790;DHT22;378;48.844;9.156;2023-02-15T03:00:08;-1.60;99.90
790;DHT22;378;48.844;9.156;2023-02-15T03:02:38;-1.70;99.90
790;DHT22;378;48.844;9.156;2023-02-15T03:05:13;-1.70;99.90
790;DHT22;378;48.844;9.156;2023-02-15T03:07:42;-1.70;99.90
790;DHT22;378;48.844;9.156;2023-02-15T03:10:13;-1.70;99.90
790;DHT22;378;48.844;9.156;2023-02-15T03:12:40;-1.70;99.90
790;DHT22;378;48.844;9.156;2023-02-15T03:15:11;-1.80;99.90
790;DHT22;378;48.844;9.156;2023-02-15T03:17:43;-1.80;99.90
790;DHT22;378;48.844;9.156;2023-02-15T03:20:15;-1.90;99.90
790;DHT22;378;48.844;9.156;2023-02-15T03:22:46;-1.80;99.90
790;DHT22;378;48.844;9.156;2023-02-15T03:25:18;-1.80;99.90
790;DHT22;378;48.844;9.156;2023-02-15T03:27:49;-1.70;99.90
790;DHT22;378;48.844;9.156;2023-02-15T03:30:21;-1.80;99.90
790;DHT22;378;48.844;9.156;2023-02-15T03:32:49;-1.80;99.90
790;DHT22;378;48.844;9.156;2023-02-15T03:35:22;-1.80;99.90
790;DHT22;378;48.844;9.156;2023-02-15T03:37:53;-1.80;99.90
790;DHT22;378;48.844;9.156;2023-02-15T03:40:23;-1.80;99.90
790;DHT22;378;48.844;9.156;2023-02-15T03:43:14;-1.80;99.90
790;DHT22;378;48.844;9.156;2023-02-15T03:45:46;-1.80;99.90
790;DHT22;378;48.844;9.156;2023-02-15T03:48:24;-1.70;99.90
790;DHT22;378;48.844;9.156;2023-02-15T03:50:56;-1.70;99.90
790;DHT22;378;48.844;9.156;2023-02-15T03:53:43;-1.70;99.90
790;DHT22;378;48.844;9.156;2023-02-15T03:56:11;-1.70;99.90
790;DHT22;378;48.844;9.156;2023-02-15T03:58:37;-1.70;99.90
790;DHT22;378;48.844;9.156;2023-02-15T04:01:26;-1.70;99.90
790;DHT22;378;48.844;9.156;2023-02-15T04:04:15;-1.60;99.90
790;DHT22;378;48.844;9.156;2023-02-15T04:06:45;-1.60;99.90
790;DHT22;378;48.844;9.156;2023-02-15T04:09:12;-1.60;99.90
790;DHT22;378;48.844;9.156;2023-02-15T04:11:56;-1.60;99.90
790;DHT22;378;48.844;9.156;2023-02-15T04:14:23;-1.50;99.90
790;DHT22;378;48.844;9.156;2023-02-15T04:17:08;-1.50;99.90
790;DHT22;378;48.844;9.156;2023-02-15T04:19:35;-1.50;99.90
790;DHT22;378;48.844;9.156;2023-02-15T04:22:20;-1.40;99.90
790;DHT22;378;48.844;9.156;2023-02-15T04:25:05;-1.40;99.90
790;DHT22;378;48.844;9.156;2023-02-15T04:27:39;-1.40;99.90
790;DHT22;378;48.844;9.156;2023-02-15T04:30:07;-1.40;99.90
790;DHT22;378;48.844;9.156;2023-02-15T04:32:34;-1.40;99.90
790;DHT22;378;48.844;9.156;2023-02-15T04:35:02;-1.40;99.90
790;DHT22;378;48.844;9.156;2023-02-15T04:37:30;-1.40;99.90
790;DHT22;378;48.844;9.156;2023-02-15T04:39:57;-1.50;99.90
790;DHT22;378;48.844;9.156;2023-02-15T04:42:24;-1.40;99.90
790;DHT22;378;48.844;9.156;2023-02-15T04:44:51;-1.40;99.90
790;DHT22;378;48.844;9.156;2023-02-15T04:47:17;-1.50;99.90
790;DHT22;378;48.844;9.156;2023-02-15T04:49:44;-1.50;99.90
790;DHT22;378;48.844;9.156;2023-02-15T04:52:11;-1.60;99.90
790;DHT22;378;48.844;9.156;2023-02-15T04:54:40;-1.60;99.90
790;DHT22;378;48.844;9.156;2023-02-15T04:57:07;-1.60;99.90
790;DHT22;378;48.844;9.156;2023-02-15T04:59:33;-1.70;99.90
790;DHT22;378;48.844;9.156;2023-02-15T05:02:00;-1.60;99.90
790;DHT22;378;48.844;9.156;2023-02-15T05:04:27;-1.70;99.90
790;DHT22;378;48.844;9.156;2023-02-15T05:06:54;-1.70;99.90
790;DHT22;378;48.844;9.156;2023-02-15T05:09:21;-1.60;99.90
790;DHT22;378;48.844;9.156;2023-02-15T05:11:49;-1.60;99.90
790;DHT22;378;48.844;9.156;2023-02-15T05:14:16;-1.60;99.90
790;DHT22;378;48.844;9.156;2023-02-15T05:16:43;-1.60;99.90
790;DHT22;378;48.844;9.156;2023-02-15T05:19:09;-1.50;99.90
790;DHT22;378;48.844;9.156;2023-02-15T05:21:36;-1.50;99.90
790;DHT22;378;48.844;9.156;2023-02-15T05:24:03;-1.50;99.90
790;DHT22;378;48.844;9.156;2023-02-15T05:26:52;-1.50;99.90
790;DHT22;378;48.844;9.156;2023-02-15T05:29:36;-1.50;99.90
790;DHT22;378;48.844;9.156;2023-02-15T05:32:03;-1.50;99.90
790;DHT22;378;48.844;9.156;2023-02-15T05:34:30;-1.50;99.90
790;DHT22;378;48.844;9.156;2023-02-15T05:36:57;-1.50;99.90
790;DHT22;378;48.844;9.156;2023-02-15T05:39:24;-1.50;99.90
790;DHT22;378;48.844;9.156;2023-02-15T05:41:52;-1.40;99.90
790;DHT22;378;48.844;9.156;2023-02-15T05:44:19;-1.40;99.90
790;DHT22;378;48.844;9.156;2023-02-15T05:46:45;-1.40;99.90
790;DHT22;378;48.844;9.156;2023-02-15T05:49:12;-1.40;99.90
790;DHT22;378;48.844;9.156;2023-02-15T05:51:39;-1.50;99.90
790;DHT22;378;48.844;9.156;2023-02-15T05:54:06;-1.50;99.90
790;DHT22;378;48.844;9.156;2023-02-15T05:56:33;-1.50;99.90
790;DHT22;378;48.844;9.156;2023-02-15T05:59:01;-1.60;99.90
790;DHT22;378;48.844;9.156;2023-02-15T06:01:28;-1.60;99.90
790;DHT22;378;48.844;9.156;2023-02-15T06:03:55;-1.60;99.90
790;DHT22;378;48.844;9.156;2023-02-15T06:06:21;-1.60;99.90
790;DHT22;378;48.844;9.156;2023-02-15T06:08:48;-1.60;99.90
790;DHT22;378;48.844;9.156;2023-02-15T06:11:15;-1.60;99.90
790;DHT22;378;48.844;9.156;2023-02-15T06:13:42;-1.60;99.90
790;DHT22;378;48.844;9.156;2023-02-15T06:16:10;-1.60;99.90
790;DHT22;378;48.844;9.156;2023-02-15T06:18:37;-1.60;99.90
790;DHT22;378;48.844;9.156;2023-02-15T06:21:04;-1.60;99.90
790;DHT22;378;48.844;9.156;2023-02-15T06:23:31;-1.50;99.90
790;DHT22;378;48.844;9.156;2023-02-15T06:25:57;-1.50;99.90
790;DHT22;378;48.844;9.156;2023-02-15T06:28:24;-1.50;99.90
790;DHT22;378;48.844;9.156;2023-02-15T06:30:51;-1.50;99.90
790;DHT22;378;48.844;9.156;2023-02-15T06:33:20;-1.60;99.90
790;DHT22;378;48.844;9.156;2023-02-15T06:35:46;-1.60;99.90
790;DHT22;378;48.844;9.156;2023-02-15T06:38:13;-1.60;99.90
790;DHT22;378;48.844;9.156;2023-02-15T06:40:40;-1.60;99.90
790;DHT22;378;48.844;9.156;2023-02-15T06:43:07;-1.60;99.90
790;DHT22;378;48.844;9.156;2023-02-15T06:45:34;-1.60;99.90
790;DHT22;378;48.844;9.156;2023-02-15T06:48:01;-1.50;99.90
790;DHT22;378;48.844;9.156;2023-02-15T06:50:29;-1.50;99.90
790;DHT22;378;48.844;9.156;2023-02-15T06:52:56;-1.40;99.90
790;DHT22;378;48.844;9.156;2023-02-15T06:55:23;-1.40;99.90
790;DHT22;378;48.844;9.156;2023-02-15T06:57:50;-1.50;99.90
790;DHT22;378;48.844;9.156;2023-02-15T07:00:18;-1.50;99.90
790;DHT22;378;48.844;9.156;2023-02-15T07:02:45;-1.60;99.90
790;DHT22;378;48.844;9.156;2023-02-15T07:05:11;-1.50;99.90
790;DHT22;378;48.844;9.156;2023-02-15T07:07:40;-1.50;99.90
790;DHT22;378;48.844;9.156;2023-02-15T07:10:07;-1.50;99.90
790;DHT22;378;48.844;9.156;2023-02-15T07:12:34;-1.50;99.90
790;DHT22;378;48.844;9.156;2023-02-15T07:15:11;-1.40;99.90
790;DHT22;378;48.844;9.156;2023-02-15T07:17:38;-1.40;99.90
790;DHT22;378;48.844;9.156;2023-02-15T07:20:08;-1.50;99.90
790;DHT22;378;48.844;9.156;2023-02-15T07:22:35;-1.50;99.90
790;DHT22;378;48.844;9.156;2023-02-15T07:25:04;-1.60;99.90
790;DHT22;378;48.844;9.156;2023-02-15T07:27:32;-1.50;99.90
790;DHT22;378;48.844;9.156;2023-02-15T07:29:58;-1.30;99.90
790;DHT22;378;48.844;9.156;2023-02-15T07:32:28;-1.20;99.90
790;DHT22;378;48.844;9.156;2023-02-15T07:34:55;-1.10;99.90
790;DHT22;378;48.844;9.156;2023-02-15T07:37:22;-1.00;99.90
790;DHT22;378;48.844;9.156;2023-02-15T07:39:49;-0.90;99.90
790;DHT22;378;48.844;9.156;2023-02-15T07:42:17;-0.70;99.90
790;DHT22;378;48.844;9.156;2023-02-15T07:44:45;-0.90;99.90
790;DHT22;378;48.844;9.156;2023-02-15T07:47:12;-0.90;99.90
790;DHT22;378;48.844;9.156;2023-02-15T07:49:39;-0.80;99.90
790;DHT22;378;48.844;9.156;2023-02-15T07:52:06;-0.80;99.90
790;DHT22;378;48.844;9.156;2023-02-15T07:54:33;-0.70;99.90
790;DHT22;378;48.844;9.156;2023-02-15T07:57:00;-0.70;99.90
790;DHT22;378;48.844;9.156;2023-02-15T07:59:29;-0.70;99.90
790;DHT22;378;48.844;9.156;2023-02-15T08:01:55;-0.70;99.90
790;DHT22;378;48.844;9.156;2023-02-15T08:04:23;-0.60;99.90
790;DHT22;378;48.844;9.156;2023-02-15T08:06:52;-0.40;99.90
790;DHT22;378;48.844;9.156;2023-02-15T08:09:19;-0.30;99.90
790;DHT22;378;48.844;9.156;2023-02-15T08:11:47;-0.20;99.90
790;DHT22;378;48.844;9.156;2023-02-15T08:14:15;0.00;99.90
790;DHT22;378;48.844;9.156;2023-02-15T08:16:45;0.10;99.90
790;DHT22;378;48.844;9.156;2023-02-15T08:19:15;0.20;99.90
790;DHT22;378;48.844;9.156;2023-02-15T08:21:44;0.20;99.90
790;DHT22;378;48.844;9.156;2023-02-15T08:24:12;0.40;99.90
790;DHT22;378;48.844;9.156;2023-02-15T08:26:40;0.60;99.90
790;DHT22;378;48.844;9.156;2023-02-15T08:29:07;0.50;99.90
790;DHT22;378;48.844;9.156;2023-02-15T08:31:35;0.30;99.90
790;DHT22;378;48.844;9.156;2023-02-15T08:34:04;0.40;99.90
790;DHT22;378;48.844;9.156;2023-02-15T08:36:32;0.40;99.90
790;DHT22;378;48.844;9.156;2023-02-15T08:39:00;0.40;99.90
790;DHT22;378;48.844;9.156;2023-02-15T08:41:28;0.60;99.90
790;DHT22;378;48.844;9.156;2023-02-15T08:43:57;0.60;99.90
790;DHT22;378;48.844;9.156;2023-02-15T08:46:26;0.80;99.90
790;DHT22;378;48.844;9.156;2023-02-15T08:48:53;0.90;99.90
790;DHT22;378;48.844;9.156;2023-02-15T08:51:22;0.90;99.90
790;DHT22;378;48.844;9.156;2023-02-15T08:53:52;1.00;99.90
790;DHT22;378;48.844;9.156;2023-02-15T08:56:21;1.10;99.90
790;DHT22;378;48.844;9.156;2023-02-15T08:58:48;1.20;99.90
790;DHT22;378;48.844;9.156;2023-02-15T09:01:17;1.20;99.90
790;DHT22;378;48.844;9.156;2023-02-15T09:03:46;1.10;99.90
790;DHT22;378;48.844;9.156;2023-02-15T09:06:15;1.20;99.90
790;DHT22;378;48.844;9.156;2023-02-15T09:08:43;1.30;99.90
790;DHT22;378;48.844;9.156;2023-02-15T09:11:13;1.30;99.90
790;DHT22;378;48.844;9.156;2023-02-15T09:13:42;1.50;99.90
790;DHT22;378;48.844;9.156;2023-02-15T09:16:10;1.70;99.90
790;DHT22;378;48.844;9.156;2023-02-15T09:18:38;1.70;99.90
790;DHT22;378;48.844;9.156;2023-02-15T09:21:06;1.90;99.90
790;DHT22;378;48.844;9.156;2023-02-15T09:23:33;2.10;99.90
790;DHT22;378;48.844;9.156;2023-02-15T09:26:08;2.10;99.90
790;DHT22;378;48.844;9.156;2023-02-15T09:28:35;2.30;99.90
790;DHT22;378;48.844;9.156;2023-02-15T09:31:07;2.60;99.90
790;DHT22;378;48.844;9.156;2023-02-15T09:33:35;2.70;99.90
790;DHT22;378;48.844;9.156;2023-02-15T09:36:03;2.60;99.90
790;DHT22;378;48.844;9.156;2023-02-15T09:38:30;2.60;99.90
790;DHT22;378;48.844;9.156;2023-02-15T09:41:08;2.40;99.90
790;DHT22;378;48.844;9.156;2023-02-15T09:43:42;2.40;99.90
790;DHT22;378;48.844;9.156;2023-02-15T09:46:36;2.60;99.90
790;DHT22;378;48.844;9.156;2023-02-15T09:49:13;2.50;99.90
790;DHT22;378;48.844;9.156;2023-02-15T09:52:06;2.90;99.90
790;DHT22;378;48.844;9.156;2023-02-15T09:54:48;2.80;99.90
790;DHT22;378;48.844;9.156;2023-02-15T09:57:24;2.70;99.90
790;DHT22;378;48.844;9.156;2023-02-15T10:00:02;2.90;99.90
790;DHT22;378;48.844;9.156;2023-02-15T10:02:51;3.20;99.90
790;DHT22;378;48.844;9.156;2023-02-15T10:05:28;3.60;99.90
790;DHT22;378;48.844;9.156;2023-02-15T10:08:21;4.40;99.90
790;DHT22;378;48.844;9.156;2023-02-15T10:11:00;4.70;99.90
790;DHT22;378;48.844;9.156;2023-02-15T10:13:56;4.30;99.90
790;DHT22;378;48.844;9.156;2023-02-15T10:16:31;4.40;99.90
790;DHT22;378;48.844;9.156;2023-02-15T10:19:04;4.70;99.90
790;DHT22;378;48.844;9.156;2023-02-15T10:21:43;4.80;99.90
790;DHT22;378;48.844;9.156;2023-02-15T10:24:36;5.00;99.90
790;DHT22;378;48.844;9.156;2023-02-15T10:27:11;4.90;99.90
790;DHT22;378;48.844;9.156;2023-02-15T10:29:43;4.70;99.90
790;DHT22;378;48.844;9.156;2023-02-15T10:32:22;4.70;99.90
790;DHT22;378;48.844;9.156;2023-02-15T10:34:52;4.40;99.90
790;DHT22;378;48.844;9.156;2023-02-15T10:37:39;4.60;99.90
790;DHT22;378;48.844;9.156;2023-02-15T10:40:15;4.60;99.90
790;DHT22;378;48.844;9.156;2023-02-15T10:42:55;4.50;99.90
790;DHT22;378;48.844;9.156;2023-02-15T10:45:31;4.40;99.90
790;DHT22;378;48.844;9.156;2023-02-15T10:48:22;4.30;99.90
790;DHT22;378;48.844;9.156;2023-02-15T10:50:51;4.10;99.90
790;DHT22;378;48.844;9.156;2023-02-15T10:53:47;4.20;99.90
790;DHT22;378;48.844;9.156;2023-02-15T10:56:20;4.00;99.90
790;DHT22;378;48.844;9.156;2023-02-15T10:59:12;4.10;99.90
790;DHT22;378;48.844;9.156;2023-02-15T11:01:47;4.20;99.90
790;DHT22;378;48.844;9.156;2023-02-15T11:04:34;4.30;99.90
790;DHT22;378;48.844;9.156;2023-02-15T11:07:08;4.20;99.90
790;DHT22;378;48.844;9.156;2023-02-15T11:09:42;4.20;99.90
790;DHT22;378;48.844;9.156;2023-02-15T11:12:13;4.30;99.90
790;DHT22;378;48.844;9.156;2023-02-15T11:14:45;4.40;99.90
790;DHT22;378;48.844;9.156;2023-02-15T11:17:18;4.50;99.90
790;DHT22;378;48.844;9.156;2023-02-15T11:19:51;4.60;99.90
790;DHT22;378;48.844;9.156;2023-02-15T11:22:21;4.60;99.90
790;DHT22;378;48.844;9.156;2023-02-15T11:24:48;4.60;99.90
790;DHT22;378;48.844;9.156;2023-02-15T11:27:20;4.60;99.90
790;DHT22;378;48.844;9.156;2023-02-15T11:29:57;4.70;99.90
790;DHT22;378;48.844;9.156;2023-02-15T11:32:30;4.70;99.90
790;DHT22;378;48.844;9.156;2023-02-15T11:35:01;4.90;99.90
790;DHT22;378;48.844;9.156;2023-02-15T11:37:33;5.00;99.90
790;DHT22;378;48.844;9.156;2023-02-15T11:40:02;5.10;99.90
790;DHT22;378;48.844;9.156;2023-02-15T11:42:31;5.10;99.90
790;DHT22;378;48.844;9.156;2023-02-15T11:45:04;5.20;99.90
790;DHT22;378;48.844;9.156;2023-02-15T11:47:36;5.40;99.90
790;DHT22;378;48.844;9.156;2023-02-15T11:50:04;5.40;99.90
790;DHT22;378;48.844;9.156;2023-02-15T11:52:31;5.50;99.90
790;DHT22;378;48.844;9.156;2023-02-15T11:54:58;5.60;99.90
790;DHT22;378;48.844;9.156;2023-02-15T11:57:31;5.70;99.90
790;DHT22;378;48.844;9.156;2023-02-15T12:00:03;5.70;99.90
790;DHT22;378;48.844;9.156;2023-02-15T12:02:37;5.90;99.90
790;DHT22;378;48.844;9.156;2023-02-15T12:05:10;5.90;99.90
790;DHT22;378;48.844;9.156;2023-02-15T12:07:43;5.90;99.90
790;DHT22;378;48.844;9.156;2023-02-15T12:10:17;5.90;99.90
790;DHT22;378;48.844;9.156;2023-02-15T12:12:46;5.90;99.90
790;DHT22;378;48.844;9.156;2023-02-15T12:15:13;5.90;99.90
790;DHT22;378;48.844;9.156;2023-02-15T12:17:49;6.00;99.90
790;DHT22;378;48.844;9.156;2023-02-15T12:20:25;5.90;99.90
790;DHT22;378;48.844;9.156;2023-02-15T12:23:00;6.00;99.90
790;DHT22;378;48.844;9.156;2023-02-15T12:25:35;6.10;99.90
790;DHT22;378;48.844;9.156;2023-02-15T12:28:03;6.10;99.90
790;DHT22;378;48.844;9.156;2023-02-15T12:30:32;6.20;99.90
790;DHT22;378;48.844;9.156;2023-02-15T12:33:06;6.20;99.90
790;DHT22;378;48.844;9.156;2023-02-15T12:35:40;6.20;99.90
790;DHT22;378;48.844;9.156;2023-02-15T12:38:23;6.20;99.90
790;DHT22;378;48.844;9.156;2023-02-15T12:40:57;6.10;99.90
790;DHT22;378;48.844;9.156;2023-02-15T12:43:31;6.10;99.90
790;DHT22;378;48.844;9.156;2023-02-15T12:46:14;6.20;99.90
790;DHT22;378;48.844;9.156;2023-02-15T12:48:48;6.40;99.90
790;DHT22;378;48.844;9.156;2023-02-15T12:51:43;6.40;99.90
790;DHT22;378;48.844;9.156;2023-02-15T12:54:29;6.60;99.90
790;DHT22;378;48.844;9.156;2023-02-15T12:56:57;6.70;99.90
790;DHT22;378;48.844;9.156;2023-02-15T12:59:24;6.80;99.90
790;DHT22;378;48.844;9.156;2023-02-15T13:01:52;6.80;99.90
790;DHT22;378;48.844;9.156;2023-02-15T13:04:24;6.90;99.90
790;DHT22;378;48.844;9.156;2023-02-15T13:06:53;6.90;99.90
790;DHT22;378;48.844;9.156;2023-02-15T13:09:35;6.90;99.90
790;DHT22;378;48.844;9.156;2023-02-15T13:12:15;6.90;99.90
790;DHT22;378;48.844;9.156;2023-02-15T13:14:45;6.90;99.90
790;DHT22;378;48.844;9.156;2023-02-15T13:17:13;7.00;99.90
790;DHT22;378;48.844;9.156;2023-02-15T13:19:46;7.10;99.90
790;DHT22;378;48.844;9.156;2023-02-15T13:22:16;7.10;99.90
790;DHT22;378;48.844;9.156;2023-02-15T13:24:46;7.30;99.90
790;DHT22;378;48.844;9.156;2023-02-15T13:27:15;7.40;99.90
790;DHT22;378;48.844;9.156;2023-02-15T13:29:45;7.60;99.90
790;DHT22;378;48.844;9.156;2023-02-15T13:32:22;7.90;99.90
790;DHT22;378;48.844;9.156;2023-02-15T13:34:56;8.10;99.90
790;DHT22;378;48.844;9.156;2023-02-15T13:37:36;8.30;99.90
790;DHT22;378;48.844;9.156;2023-02-15T13:40:10;8.40;99.90
790;DHT22;378;48.844;9.156;2023-02-15T13:42:41;8.30;99.90
790;DHT22;378;48.844;9.156;2023-02-15T13:45:24;8.30;99.90
790;DHT22;378;48.844;9.156;2023-02-15T13:47:59;8.30;99.90
790;DHT22;378;48.844;9.156;2023-02-15T13:50:44;8.30;99.90
790;DHT22;378;48.844;9.156;2023-02-15T13:53:31;8.40;99.90
790;DHT22;378;48.844;9.156;2023-02-15T13:56:05;8.60;99.90
790;DHT22;378;48.844;9.156;2023-02-15T13:59:12;8.70;99.90
790;DHT22;378;48.844;9.156;2023-02-15T14:01:46;8.50;99.90
790;DHT22;378;48.844;9.156;2023-02-15T14:04:58;8.40;99.90
790;DHT22;378;48.844;9.156;2023-02-15T14:07:47;8.40;99.90
790;DHT22;378;48.844;9.156;2023-02-15T14:10:32;8.10;99.90
790;DHT22;378;48.844;9.156;2023-02-15T14:13:22;8.10;99.90
790;DHT22;378;48.844;9.156;2023-02-15T14:15:55;8.00;99.90
790;DHT22;378;48.844;9.156;2023-02-15T14:18:29;7.90;99.90
790;DHT22;378;48.844;9.156;2023-02-15T14:21:05;8.00;99.90
790;DHT22;378;48.844;9.156;2023-02-15T14:23:47;8.00;99.90
790;DHT22;378;48.844;9.156;2023-02-15T14:26:27;8.00;99.90
790;DHT22;378;48.844;9.156;2023-02-15T14:29:05;7.90;99.90
790;DHT22;378;48.844;9.156;2023-02-15T14:31:37;7.90;99.90
790;DHT22;378;48.844;9.156;2023-02-15T14:34:04;7.90;99.90
790;DHT22;378;48.844;9.156;2023-02-15T14:36:32;7.90;99.90
790;DHT22;378;48.844;9.156;2023-02-15T14:39:08;7.90;99.90
790;DHT22;378;48.844;9.156;2023-02-15T14:41:59;7.90;99.90
790;DHT22;378;48.844;9.156;2023-02-15T14:44:32;8.00;99.90
790;DHT22;378;48.844;9.156;2023-02-15T14:47:05;8.00;99.90
790;DHT22;378;48.844;9.156;2023-02-15T14:49:36;8.00;99.90
790;DHT22;378;48.844;9.156;2023-02-15T14:52:04;8.00;99.90
790;DHT22;378;48.844;9.156;2023-02-15T14:54:57;7.90;99.90
790;DHT22;378;48.844;9.156;2023-02-15T14:57:29;8.00;99.90
790;DHT22;378;48.844;9.156;2023-02-15T14:59:58;8.00;99.90
790;DHT22;378;48.844;9.156;2023-02-15T15:02:28;8.00;99.90
790;DHT22;378;48.844;9.156;2023-02-15T15:05:01;8.00;99.90
790;DHT22;378;48.844;9.156;2023-02-15T15:07:37;8.10;99.90
790;DHT22;378;48.844;9.156;2023-02-15T15:10:37;8.10;99.90
790;DHT22;378;48.844;9.156;2023-02-15T15:16:30;8.00;99.90
790;DHT22;378;48.844;9.156;2023-02-15T15:18:58;8.00;99.90
790;DHT22;378;48.844;9.156;2023-02-15T15:21:54;7.90;99.90
790;DHT22;378;48.844;9.156;2023-02-15T15:24:48;7.90;99.90
790;DHT22;378;48.844;9.156;2023-02-15T15:27:40;7.80;99.90
790;DHT22;378;48.844;9.156;2023-02-15T15:30:48;7.80;99.90
790;DHT22;378;48.844;9.156;2023-02-15T15:40:07;7.60;99.90
790;DHT22;378;48.844;9.156;2023-02-15T15:42:48;7.50;99.90
790;DHT22;378;48.844;9.156;2023-02-15T15:48:29;7.40;99.90
790;DHT22;378;48.844;9.156;2023-02-15T15:50:58;7.30;99.90
790;DHT22;378;48.844;9.156;2023-02-15T15:53:28;7.30;99.90
790;DHT22;378;48.844;9.156;2023-02-15T15:55:59;7.20;99.90
790;DHT22;378;48.844;9.156;2023-02-15T15:58:29;7.10;99.90
790;DHT22;378;48.844;9.156;2023-02-15T16:01:01;7.10;99.90
790;DHT22;378;48.844;9.156;2023-02-15T16:03:30;6.90;99.90
790;DHT22;378;48.844;9.156;2023-02-15T16:05:57;6.80;99.90
790;DHT22;378;48.844;9.156;2023-02-15T16:08:30;6.80;99.90
790;DHT22;378;48.844;9.156;2023-02-15T16:10:58;6.70;99.90
790;DHT22;378;48.844;9.156;2023-02-15T16:13:25;6.70;99.90
790;DHT22;378;48.844;9.156;2023-02-15T16:15:55;6.60;99.90
790;DHT22;378;48.844;9.156;2023-02-15T16:18:24;6.40;99.90
790;DHT22;378;48.844;9.156;2023-02-15T16:20:54;6.30;99.90
790;DHT22;378;48.844;9.156;2023-02-15T16:23:35;6.10;99.90
790;DHT22;378;48.844;9.156;2023-02-15T16:26:09;6.00;99.90
790;DHT22;378;48.844;9.156;2023-02-15T16:28:39;5.80;99.90
790;DHT22;378;48.844;9.156;2023-02-15T16:31:15;5.70;99.90
790;DHT22;378;48.844;9.156;2023-02-15T16:33:43;5.60;99.90
790;DHT22;378;48.844;9.156;2023-02-15T16:36:12;5.40;99.90
790;DHT22;378;48.844;9.156;2023-02-15T16:39:08;5.30;99.90
790;DHT22;378;48.844;9.156;2023-02-15T16:41:35;5.20;99.90
790;DHT22;378;48.844;9.156;2023-02-15T16:44:05;5.10;99.90
790;DHT22;378;48.844;9.156;2023-02-15T16:46:37;4.90;99.90
790;DHT22;378;48.844;9.156;2023-02-15T16:49:12;4.80;99.90
790;DHT22;378;48.844;9.156;2023-02-15T16:51:42;4.80;99.90
790;DHT22;378;48.844;9.156;2023-02-15T16:54:17;4.70;99.90
790;DHT22;378;48.844;9.156;2023-02-15T16:56:45;4.60;99.90
790;DHT22;378;48.844;9.156;2023-02-15T16:59:24;4.50;99.90
790;DHT22;378;48.844;9.156;2023-02-15T17:01:55;4.50;99.90
790;DHT22;378;48.844;9.156;2023-02-15T17:04:30;4.50;99.90
790;DHT22;378;48.844;9.156;2023-02-15T17:07:00;4.40;99.90
790;DHT22;378;48.844;9.156;2023-02-15T17:09:27;4.40;99.90
790;DHT22;378;48.844;9.156;2023-02-15T17:11:54;4.40;99.90
790;DHT22;378;48.844;9.156;2023-02-15T17:14:21;4.30;99.90
790;DHT22;378;48.844;9.156;2023-02-15T17:16:58;4.20;99.90
790;DHT22;378;48.844;9.156;2023-02-15T17:19:27;4.10;99.90
790;DHT22;378;48.844;9.156;2023-02-15T17:21:56;4.10;99.90
790;DHT22;378;48.844;9.156;2023-02-15T17:24:32;4.00;99.90
790;DHT22;378;48.844;9.156;2023-02-15T17:27:03;3.90;99.90
790;DHT22;378;48.844;9.156;2023-02-15T17:29:36;3.90;99.90
790;DHT22;378;48.844;9.156;2023-02-15T17:32:10;3.80;99.90